createdAt,value
2023-03-31T00:00:19.022Z,6.72
2023-03-31T00:01:21.923Z,6.65
2023-03-31T00:02:24.879Z,6.45
2023-03-31T00:03:28.117Z,6.62
2023-03-31T00:04:32.426Z,6.43
2023-03-31T00:05:37.695Z,6.35
2023-03-31T00:06:42.382Z,6.18
2023-03-31T00:07:46.265Z,5.60
2023-03-31T00:08:52.558Z,6.32
2023-03-31T00:10:07.147Z,5.55
2023-03-31T00:11:22.097Z,5.87
2023-03-31T00:12:24.998Z,5.32
2023-03-31T00:13:28.415Z,5.35
2023-03-31T00:14:31.247Z,5.80
2023-03-31T00:15:34.019Z,5.97
2023-03-31T00:16:39.067Z,5.50
2023-03-31T00:17:41.831Z,5.43
2023-03-31T00:18:47.875Z,5.53
2023-03-31T00:19:51.583Z,5.35
2023-03-31T00:20:54.680Z,5.07
2023-03-31T00:22:02.230Z,5.32
2023-03-31T00:23:11.309Z,5.43
2023-03-31T00:24:15.818Z,4.85
2023-03-31T00:25:18.678Z,5.30
2023-03-31T00:26:22.911Z,5.18
2023-03-31T00:27:25.670Z,4.82
2023-03-31T00:28:28.395Z,5.28
2023-03-31T00:29:33.892Z,5.30
2023-03-31T00:30:36.850Z,5.25
2023-03-31T00:31:39.946Z,5.32
2023-03-31T00:32:42.973Z,5.07
2023-03-31T00:33:45.814Z,5.10
2023-03-31T00:34:48.437Z,5.57
2023-03-31T00:35:54.089Z,5.25
2023-03-31T00:36:58.028Z,4.87
2023-03-31T00:38:00.906Z,5.15
2023-03-31T00:39:09.586Z,5.43
2023-03-31T00:40:12.563Z,5.15
2023-03-31T00:41:16.247Z,4.82
2023-03-31T00:42:19.270Z,5.22
2023-03-31T00:43:42.564Z,4.80
2023-03-31T00:45:19.018Z,5.32
2023-03-31T00:46:31.395Z,5.05
2023-03-31T00:47:35.404Z,4.65
2023-03-31T00:48:38.598Z,5.20
2023-03-31T00:49:46.622Z,4.85
2023-03-31T00:50:54.477Z,4.75
2023-03-31T00:52:25.100Z,4.75
2023-03-31T00:53:32.706Z,5.10
2023-03-31T00:54:38.112Z,5.12
2023-03-31T00:55:45.648Z,5.07
2023-03-31T00:56:50.384Z,4.80
2023-03-31T00:57:54.002Z,4.85
2023-03-31T00:59:02.242Z,5.00
2023-03-31T01:00:19.206Z,4.80
2023-03-31T01:01:27.055Z,4.55
2023-03-31T01:02:29.774Z,4.43
2023-03-31T01:03:33.674Z,4.68
2023-03-31T01:04:42.703Z,4.50
2023-03-31T01:06:05.203Z,4.37
2023-03-31T01:07:34.544Z,4.45
2023-03-31T01:08:38.887Z,4.40
2023-03-31T01:09:42.231Z,4.62
2023-03-31T01:11:02.427Z,4.95
2023-03-31T01:12:09.329Z,4.35
2023-03-31T01:13:15.059Z,4.30
2023-03-31T01:14:17.938Z,4.65
2023-03-31T01:15:20.773Z,5.07
2023-03-31T01:16:24.221Z,4.55
2023-03-31T01:17:30.246Z,5.18
2023-03-31T01:18:36.541Z,4.82
2023-03-31T01:20:14.787Z,4.75
2023-03-31T01:21:20.487Z,4.70
2023-03-31T01:23:00.266Z,4.50
2023-03-31T01:24:11.612Z,4.55
2023-03-31T01:26:15.998Z,4.37
2023-03-31T01:27:44.175Z,4.60
2023-03-31T01:29:08.902Z,4.47
2023-03-31T01:30:20.850Z,4.55
2023-03-31T01:31:23.859Z,5.05
2023-03-31T01:33:04.942Z,4.53
2023-03-31T01:34:22.471Z,4.68
2023-03-31T01:35:48.317Z,4.43
2023-03-31T01:37:23.624Z,4.43
2023-03-31T01:39:03.945Z,4.53
2023-03-31T01:40:31.281Z,3.92
2023-03-31T01:42:08.568Z,5.10
2023-03-31T01:43:35.875Z,4.65
2023-03-31T01:45:03.183Z,4.57
2023-03-31T01:46:14.454Z,4.82
2023-03-31T01:47:25.803Z,4.45
2023-03-31T01:48:57.816Z,4.10
2023-03-31T01:50:08.478Z,4.30
2023-03-31T01:51:17.096Z,4.37
2023-03-31T01:52:32.963Z,3.95
2023-03-31T01:54:23.757Z,4.40
2023-03-31T01:55:44.320Z,4.40
2023-03-31T01:56:53.997Z,4.37
2023-03-31T01:58:08.101Z,4.37
2023-03-31T01:59:39.931Z,4.35
2023-03-31T02:00:52.160Z,3.85
2023-03-31T02:02:01.768Z,4.65
2023-03-31T02:03:12.297Z,4.30
2023-03-31T02:04:20.987Z,4.70
2023-03-31T02:05:31.964Z,4.05
2023-03-31T02:06:40.572Z,4.68
2023-03-31T02:07:50.485Z,4.90
2023-03-31T02:09:02.684Z,4.47
2023-03-31T02:10:09.897Z,4.10
2023-03-31T02:11:13.619Z,4.45
2023-03-31T02:12:17.564Z,4.45
2023-03-31T02:13:23.025Z,4.30
2023-03-31T02:14:30.141Z,4.80
2023-03-31T02:15:39.160Z,5.03
2023-03-31T02:16:47.795Z,4.32
2023-03-31T02:17:56.842Z,3.78
2023-03-31T02:19:06.114Z,3.87
2023-03-31T02:20:15.603Z,4.60
2023-03-31T02:21:20.853Z,4.32
2023-03-31T02:22:24.375Z,4.22
2023-03-31T02:23:32.102Z,4.18
2023-03-31T02:24:37.953Z,4.03
2023-03-31T02:25:57.381Z,4.57
2023-03-31T02:27:12.902Z,4.37
2023-03-31T02:28:22.515Z,3.47
2023-03-31T02:29:25.467Z,4.20
2023-03-31T02:30:41.074Z,4.47
2023-03-31T02:31:54.615Z,4.70
2023-03-31T02:32:58.179Z,3.87
2023-03-31T02:34:01.642Z,3.50
2023-03-31T02:35:06.370Z,4.20
2023-03-31T02:36:10.193Z,4.07
2023-03-31T02:37:13.953Z,3.97
2023-03-31T02:38:16.826Z,3.72
2023-03-31T02:39:25.192Z,3.90
2023-03-31T02:40:27.983Z,4.43
2023-03-31T02:41:30.993Z,4.25
2023-03-31T02:42:34.120Z,4.03
2023-03-31T02:43:36.876Z,3.75
2023-03-31T02:44:40.336Z,4.55
2023-03-31T02:45:46.120Z,4.47
2023-03-31T02:46:50.542Z,4.37
2023-03-31T02:47:53.864Z,4.20
2023-03-31T02:49:00.139Z,4.45
2023-03-31T02:50:06.183Z,4.10
2023-03-31T02:51:09.158Z,4.22
2023-03-31T02:52:46.065Z,4.40
2023-03-31T02:54:15.763Z,4.10
2023-03-31T02:55:52.075Z,4.25
2023-03-31T02:57:13.847Z,4.35
2023-03-31T02:58:49.188Z,3.78
2023-03-31T03:00:18.164Z,3.87
2023-03-31T03:01:42.684Z,4.35
2023-03-31T03:03:08.229Z,3.70
2023-03-31T03:04:37.245Z,3.80
2023-03-31T03:05:55.145Z,3.70
2023-03-31T03:07:33.004Z,4.05
2023-03-31T03:08:58.349Z,4.00
2023-03-31T03:10:18.772Z,3.72
2023-03-31T03:11:34.237Z,3.45
2023-03-31T03:12:59.038Z,3.70
2023-03-31T03:14:13.879Z,3.47
2023-03-31T03:15:19.469Z,3.45
2023-03-31T03:16:27.603Z,3.85
2023-03-31T03:17:36.470Z,4.15
2023-03-31T03:18:39.710Z,3.80
2023-03-31T03:19:43.207Z,3.62
2023-03-31T03:20:51.167Z,3.30
2023-03-31T03:21:54.462Z,3.83
2023-03-31T03:22:57.650Z,3.75
2023-03-31T03:24:01.802Z,3.58
2023-03-31T03:25:10.681Z,4.50
2023-03-31T03:26:13.448Z,3.72
2023-03-31T03:27:16.261Z,4.00
2023-03-31T03:28:19.189Z,4.18
2023-03-31T03:29:22.522Z,3.78
2023-03-31T03:30:25.978Z,3.78
2023-03-31T03:31:28.798Z,3.53
2023-03-31T03:32:33.900Z,3.92
2023-03-31T03:33:37.110Z,3.67
2023-03-31T03:34:39.864Z,3.75
2023-03-31T03:35:43.489Z,3.37
2023-03-31T03:36:47.234Z,4.07
2023-03-31T03:37:50.108Z,4.32
2023-03-31T03:38:53.011Z,3.85
2023-03-31T03:39:56.012Z,3.70
2023-03-31T03:40:58.744Z,3.83
2023-03-31T03:42:01.504Z,3.80
2023-03-31T03:43:04.295Z,3.83
2023-03-31T03:44:06.979Z,3.67
2023-03-31T03:45:10.044Z,4.05
2023-03-31T03:46:13.481Z,4.10
2023-03-31T03:47:16.480Z,4.20
2023-03-31T03:48:19.538Z,3.83
2023-03-31T03:49:22.794Z,3.70
2023-03-31T03:50:25.562Z,3.85
2023-03-31T03:51:28.508Z,3.75
2023-03-31T03:52:31.201Z,3.22
2023-03-31T03:53:34.313Z,3.47
2023-03-31T03:54:36.992Z,3.65
2023-03-31T03:55:39.738Z,3.45
2023-03-31T03:56:42.811Z,3.60
2023-03-31T03:57:45.710Z,3.45
2023-03-31T03:58:48.839Z,3.95
2023-03-31T03:59:51.577Z,3.67
2023-03-31T04:00:54.285Z,3.60
2023-03-31T04:01:57.169Z,3.58
2023-03-31T04:03:00.100Z,3.83
2023-03-31T04:04:03.970Z,3.53
2023-03-31T04:05:07.005Z,3.90
2023-03-31T04:06:09.946Z,3.85
2023-03-31T04:07:13.132Z,3.67
2023-03-31T04:08:16.205Z,3.42
2023-03-31T04:09:18.912Z,3.83
2023-03-31T04:10:21.665Z,3.87
2023-03-31T04:11:24.709Z,3.53
2023-03-31T04:12:27.646Z,3.42
2023-03-31T04:13:30.420Z,3.95
2023-03-31T04:14:33.092Z,3.80
2023-03-31T04:15:36.145Z,3.70
2023-03-31T04:16:40.878Z,3.58
2023-03-31T04:17:51.209Z,3.90
2023-03-31T04:18:57.260Z,3.75
2023-03-31T04:20:07.866Z,3.58
2023-03-31T04:21:15.999Z,4.60
2023-03-31T04:22:20.770Z,3.65
2023-03-31T04:23:26.790Z,3.67
2023-03-31T04:24:33.395Z,3.42
2023-03-31T04:25:38.847Z,3.55
2023-03-31T04:26:45.006Z,3.70
2023-03-31T04:27:55.481Z,3.90
2023-03-31T04:29:02.007Z,3.80
2023-03-31T04:30:05.285Z,3.58
2023-03-31T04:31:11.039Z,4.10
2023-03-31T04:32:15.355Z,3.80
2023-03-31T04:33:19.235Z,4.05
2023-03-31T04:34:22.398Z,3.78
2023-03-31T04:35:27.585Z,5.25
2023-03-31T04:36:31.847Z,4.47
2023-03-31T04:37:39.002Z,4.07
2023-03-31T04:38:41.688Z,4.20
2023-03-31T04:39:46.970Z,4.22
2023-03-31T04:40:51.979Z,3.90
2023-03-31T04:41:54.777Z,3.78
2023-03-31T04:42:57.581Z,3.95
2023-03-31T04:44:00.459Z,3.95
2023-03-31T04:45:03.852Z,4.10
2023-03-31T04:46:06.989Z,3.90
2023-03-31T04:47:10.070Z,3.97
2023-03-31T04:48:13.160Z,4.10
2023-03-31T04:49:16.309Z,4.00
2023-03-31T04:50:19.139Z,4.30
2023-03-31T04:51:21.925Z,4.03
2023-03-31T04:52:24.671Z,3.87
2023-03-31T04:53:27.687Z,3.67
2023-03-31T04:54:30.733Z,4.12
2023-03-31T04:55:33.728Z,4.00
2023-03-31T04:56:36.564Z,4.10
2023-03-31T04:57:39.499Z,3.85
2023-03-31T04:58:42.395Z,3.78
2023-03-31T04:59:45.105Z,3.75
2023-03-31T05:00:48.306Z,4.00
2023-03-31T05:01:51.425Z,4.18
2023-03-31T05:02:54.188Z,3.87
2023-03-31T05:03:56.930Z,4.25
2023-03-31T05:04:59.616Z,3.95
2023-03-31T05:06:02.567Z,4.50
2023-03-31T05:07:05.742Z,3.87
2023-03-31T05:08:08.744Z,3.67
2023-03-31T05:09:11.605Z,3.78
2023-03-31T05:10:14.967Z,4.25
2023-03-31T05:11:17.899Z,3.95
2023-03-31T05:12:20.999Z,4.10
2023-03-31T05:13:23.811Z,3.80
2023-03-31T05:14:26.643Z,4.50
2023-03-31T05:15:29.618Z,4.00
2023-03-31T05:16:32.402Z,3.78
2023-03-31T05:17:36.703Z,3.78
2023-03-31T05:18:39.677Z,3.55
2023-03-31T05:19:42.480Z,3.20
2023-03-31T05:20:45.530Z,3.40
2023-03-31T05:21:49.176Z,3.25
2023-03-31T05:22:52.378Z,3.17
2023-03-31T05:23:55.253Z,3.60
2023-03-31T05:24:58.054Z,3.15
2023-03-31T05:26:00.997Z,3.92
2023-03-31T05:27:03.879Z,3.45
2023-03-31T05:28:06.708Z,3.25
2023-03-31T05:29:09.558Z,3.30
2023-03-31T05:30:12.875Z,3.50
2023-03-31T05:31:15.608Z,3.60
2023-03-31T05:32:18.332Z,3.72
2023-03-31T05:33:21.097Z,3.20
2023-03-31T05:34:23.835Z,3.60
2023-03-31T05:35:26.714Z,3.25
2023-03-31T05:36:29.779Z,3.80
2023-03-31T05:37:32.535Z,3.50
2023-03-31T05:38:35.876Z,3.30
2023-03-31T05:39:38.719Z,3.87
2023-03-31T05:40:41.816Z,3.72
2023-03-31T05:41:44.555Z,3.92
2023-03-31T05:42:47.155Z,3.40
2023-03-31T05:43:49.892Z,3.75
2023-03-31T05:44:52.600Z,4.07
2023-03-31T05:45:55.520Z,3.87
2023-03-31T05:46:58.320Z,3.80
2023-03-31T05:48:01.736Z,3.85
2023-03-31T05:49:04.621Z,3.55
2023-03-31T05:50:09.571Z,4.05
2023-03-31T05:51:12.354Z,3.60
2023-03-31T05:52:15.169Z,3.75
2023-03-31T05:53:17.884Z,3.53
2023-03-31T05:54:20.906Z,4.15
2023-03-31T05:55:23.821Z,3.60
2023-03-31T05:56:27.774Z,3.72
2023-03-31T05:57:30.809Z,3.58
2023-03-31T05:58:37.150Z,4.00
2023-03-31T05:59:42.304Z,3.40
2023-03-31T06:00:45.613Z,3.70
2023-03-31T06:01:48.889Z,3.75
2023-03-31T06:02:52.217Z,3.50
2023-03-31T06:03:54.994Z,3.78
2023-03-31T06:04:57.822Z,3.60
2023-03-31T06:06:02.427Z,3.28
2023-03-31T06:07:05.699Z,3.67
2023-03-31T06:08:08.448Z,3.80
2023-03-31T06:09:12.739Z,3.37
2023-03-31T06:10:16.249Z,3.58
2023-03-31T06:11:21.426Z,3.42
2023-03-31T06:12:24.057Z,3.55
2023-03-31T06:13:26.878Z,3.55
2023-03-31T06:14:30.016Z,3.37
2023-03-31T06:15:32.852Z,3.70
2023-03-31T06:16:35.678Z,3.45
2023-03-31T06:17:39.148Z,3.45
2023-03-31T06:18:42.414Z,3.33
2023-03-31T06:19:45.341Z,3.40
2023-03-31T06:20:48.043Z,3.55
2023-03-31T06:21:51.405Z,3.60
2023-03-31T06:22:54.048Z,3.37
2023-03-31T06:23:58.530Z,4.10
2023-03-31T06:25:01.408Z,3.42
2023-03-31T06:26:08.503Z,2.95
2023-03-31T06:27:11.309Z,3.55
2023-03-31T06:28:14.535Z,3.55
2023-03-31T06:29:17.217Z,3.08
2023-03-31T06:30:20.023Z,3.35
2023-03-31T06:31:25.125Z,3.08
2023-03-31T06:32:27.914Z,3.37
2023-03-31T06:33:30.938Z,3.12
2023-03-31T06:34:33.795Z,3.00
2023-03-31T06:35:40.652Z,3.00
2023-03-31T06:36:43.478Z,3.30
2023-03-31T06:37:46.925Z,3.20
2023-03-31T06:38:51.304Z,3.12
2023-03-31T06:39:54.368Z,3.50
2023-03-31T06:40:57.092Z,2.70
2023-03-31T06:42:00.122Z,3.00
2023-03-31T06:43:02.832Z,2.95
2023-03-31T06:44:05.991Z,3.08
2023-03-31T06:45:09.100Z,3.05
2023-03-31T06:46:12.572Z,3.28
2023-03-31T06:47:15.466Z,2.87
2023-03-31T06:48:18.275Z,3.03
2023-03-31T06:49:21.507Z,2.78
2023-03-31T06:50:24.438Z,3.00
2023-03-31T06:51:27.281Z,3.20
2023-03-31T06:52:31.723Z,2.70
2023-03-31T06:53:35.729Z,3.58
2023-03-31T06:54:38.624Z,3.30
2023-03-31T06:55:41.292Z,2.67
2023-03-31T06:56:44.285Z,2.92
2023-03-31T06:57:47.088Z,2.80
2023-03-31T06:58:50.141Z,2.60
2023-03-31T06:59:52.961Z,2.92
2023-03-31T07:00:55.981Z,3.15
2023-03-31T07:01:58.853Z,2.92
2023-03-31T07:03:02.141Z,2.90
2023-03-31T07:04:05.540Z,2.75
2023-03-31T07:05:08.247Z,3.12
2023-03-31T07:06:11.235Z,3.05
2023-03-31T07:07:14.012Z,3.53
2023-03-31T07:08:20.332Z,3.60
2023-03-31T07:09:23.809Z,3.47
2023-03-31T07:10:29.716Z,3.60
2023-03-31T07:11:32.595Z,3.47
2023-03-31T07:12:35.320Z,3.25
2023-03-31T07:13:37.972Z,3.10
2023-03-31T07:14:40.785Z,3.03
2023-03-31T07:15:44.788Z,3.10
2023-03-31T07:16:47.680Z,2.62
2023-03-31T07:18:02.199Z,2.85
2023-03-31T07:19:06.082Z,2.70
2023-03-31T07:20:19.283Z,3.00
2023-03-31T07:21:22.079Z,2.75
2023-03-31T07:22:24.714Z,2.60
2023-03-31T07:23:28.104Z,3.08
2023-03-31T07:24:31.210Z,2.85
2023-03-31T07:25:34.275Z,3.20
2023-03-31T07:26:37.306Z,2.85
2023-03-31T07:27:40.890Z,3.08
2023-03-31T07:28:43.733Z,3.28
2023-03-31T07:29:46.739Z,2.75
2023-03-31T07:30:49.699Z,2.80
2023-03-31T07:31:53.138Z,2.45
2023-03-31T07:32:55.931Z,2.90
2023-03-31T07:33:58.736Z,2.92
2023-03-31T07:35:01.612Z,2.47
2023-03-31T07:36:12.775Z,3.25
2023-03-31T07:37:16.915Z,2.90
2023-03-31T07:38:19.767Z,2.87
2023-03-31T07:39:22.808Z,2.87
2023-03-31T07:40:28.990Z,2.80
2023-03-31T07:41:36.311Z,2.50
2023-03-31T07:42:39.313Z,2.78
2023-03-31T07:43:42.532Z,2.70
2023-03-31T07:44:45.424Z,2.92
2023-03-31T07:45:48.476Z,3.05
2023-03-31T07:46:51.338Z,2.83
2023-03-31T07:47:54.831Z,2.60
2023-03-31T07:48:58.828Z,2.67
2023-03-31T07:50:01.608Z,2.87
2023-03-31T07:51:04.719Z,2.50
2023-03-31T07:52:07.555Z,3.00
2023-03-31T07:53:10.905Z,2.60
2023-03-31T07:54:13.703Z,2.78
2023-03-31T07:55:16.910Z,2.60
2023-03-31T07:56:24.878Z,2.47
2023-03-31T07:57:27.742Z,2.40
2023-03-31T07:58:30.690Z,2.45
2023-03-31T07:59:33.434Z,3.60
2023-03-31T08:00:36.575Z,2.85
2023-03-31T08:01:39.897Z,3.50
2023-03-31T08:02:43.549Z,2.83
2023-03-31T08:03:48.500Z,2.50
2023-03-31T08:04:51.166Z,3.20
2023-03-31T08:05:54.642Z,3.00
2023-03-31T08:06:57.907Z,3.08
2023-03-31T08:08:00.756Z,3.33
2023-03-31T08:09:05.363Z,3.05
2023-03-31T08:10:13.371Z,3.40
2023-03-31T08:11:17.072Z,3.10
2023-03-31T08:12:20.046Z,2.62
2023-03-31T08:13:22.854Z,3.08
2023-03-31T08:14:40.011Z,2.75
2023-03-31T08:15:44.212Z,2.65
2023-03-31T08:16:47.120Z,2.85
2023-03-31T08:17:50.223Z,2.60
2023-03-31T08:18:53.159Z,2.47
2023-03-31T08:19:56.383Z,2.55
2023-03-31T08:20:59.248Z,2.40
2023-03-31T08:22:02.064Z,2.58
2023-03-31T08:23:09.242Z,2.50
2023-03-31T08:24:12.025Z,2.67
2023-03-31T08:25:14.831Z,2.33
2023-03-31T08:26:24.423Z,2.47
2023-03-31T08:27:27.128Z,2.20
2023-03-31T08:28:29.831Z,2.60
2023-03-31T08:29:33.509Z,2.15
2023-03-31T08:30:38.487Z,2.30
2023-03-31T08:31:41.220Z,2.03
2023-03-31T08:32:44.673Z,2.00
2023-03-31T08:33:47.998Z,1.83
2023-03-31T08:34:51.812Z,2.00
2023-03-31T08:35:54.518Z,2.15
2023-03-31T08:36:57.525Z,2.03
2023-03-31T08:38:00.600Z,2.25
2023-03-31T08:39:04.921Z,1.85
2023-03-31T08:40:15.433Z,2.05
2023-03-31T08:41:31.009Z,1.80
2023-03-31T08:42:49.377Z,2.00
2023-03-31T08:43:56.434Z,2.08
2023-03-31T08:45:19.349Z,2.30
2023-03-31T08:46:22.788Z,2.35
2023-03-31T08:47:29.883Z,1.98
2023-03-31T08:48:45.551Z,1.85
2023-03-31T08:49:59.483Z,2.05
2023-03-31T08:51:12.040Z,2.00
2023-03-31T08:52:23.891Z,2.40
2023-03-31T08:53:29.249Z,2.75
2023-03-31T08:54:37.256Z,2.75
2023-03-31T08:55:57.043Z,3.50
2023-03-31T08:57:00.845Z,3.00
2023-03-31T08:58:29.783Z,3.12
2023-03-31T08:59:36.495Z,2.75
2023-03-31T09:01:03.710Z,2.65
2023-03-31T09:02:25.268Z,3.47
2023-03-31T09:04:13.091Z,2.97
2023-03-31T09:05:24.145Z,2.50
2023-03-31T09:07:02.805Z,2.50
2023-03-31T09:08:21.074Z,3.53
2023-03-31T09:09:45.934Z,2.72
2023-03-31T09:10:58.754Z,2.67
2023-03-31T09:12:10.864Z,2.97
2023-03-31T09:13:45.198Z,2.70
2023-03-31T09:14:59.499Z,2.50
2023-03-31T09:16:08.070Z,2.37
2023-03-31T09:17:45.323Z,2.10
2023-03-31T09:18:50.510Z,2.70
2023-03-31T09:19:59.137Z,3.15
2023-03-31T09:21:25.387Z,2.85
2023-03-31T09:22:33.797Z,2.45
2023-03-31T09:23:43.409Z,2.45
2023-03-31T09:24:52.771Z,2.10
2023-03-31T09:25:58.220Z,2.37
2023-03-31T09:27:05.121Z,2.20
2023-03-31T09:28:20.242Z,1.65
2023-03-31T09:29:32.308Z,2.30
2023-03-31T09:30:38.302Z,1.67
2023-03-31T09:31:43.516Z,2.40
2023-03-31T09:32:53.129Z,2.25
2023-03-31T09:34:01.884Z,2.42
2023-03-31T09:35:26.008Z,2.50
2023-03-31T09:36:29.049Z,2.50
2023-03-31T09:37:33.480Z,2.53
2023-03-31T09:38:36.829Z,2.58
2023-03-31T09:39:42.767Z,2.08
2023-03-31T09:40:46.017Z,1.90
2023-03-31T09:41:51.557Z,2.30
2023-03-31T09:43:02.090Z,1.98
2023-03-31T09:44:05.730Z,2.22
2023-03-31T09:45:16.319Z,2.35
2023-03-31T09:46:30.513Z,2.05
2023-03-31T09:47:43.074Z,1.70
2023-03-31T09:49:02.900Z,1.87
2023-03-31T09:50:08.078Z,1.80
2023-03-31T09:51:20.488Z,2.03
2023-03-31T09:52:35.435Z,1.80
2023-03-31T09:53:43.837Z,1.83
2023-03-31T09:54:54.408Z,2.05
2023-03-31T09:56:02.707Z,2.00
2023-03-31T09:57:24.482Z,2.03
2023-03-31T09:58:27.427Z,1.62
2023-03-31T09:59:36.220Z,1.80
2023-03-31T10:00:42.498Z,2.30
2023-03-31T10:01:48.054Z,1.92
2023-03-31T10:02:56.371Z,2.30
2023-03-31T10:03:59.165Z,2.25
2023-03-31T10:05:03.892Z,2.10
2023-03-31T10:06:11.682Z,2.12
2023-03-31T10:07:23.371Z,2.05
2023-03-31T10:09:39.061Z,2.30
2023-03-31T10:11:06.667Z,2.50
2023-03-31T10:12:17.383Z,1.92
2023-03-31T10:13:46.866Z,2.25
2023-03-31T10:14:52.209Z,2.35
2023-03-31T10:16:08.649Z,2.83
2023-03-31T10:17:16.195Z,2.78
2023-03-31T10:18:21.354Z,2.95
2023-03-31T10:19:27.919Z,2.53
2023-03-31T10:20:39.516Z,2.60
2023-03-31T10:21:47.376Z,2.87
2023-03-31T10:22:51.393Z,2.20
2023-03-31T10:23:55.519Z,2.28
2023-03-31T10:25:20.802Z,2.22
2023-03-31T10:26:27.901Z,2.45
2023-03-31T10:27:31.826Z,2.50
2023-03-31T10:28:36.386Z,2.60
2023-03-31T10:29:39.322Z,2.45
2023-03-31T10:30:50.077Z,2.10
2023-03-31T10:31:53.342Z,2.20
2023-03-31T10:32:56.977Z,1.92
2023-03-31T10:34:05.299Z,1.75
2023-03-31T10:35:35.633Z,2.10
2023-03-31T10:36:39.795Z,2.00
2023-03-31T10:37:42.619Z,2.05
2023-03-31T10:38:48.689Z,2.03
2023-03-31T10:40:00.538Z,2.37
2023-03-31T10:41:04.335Z,2.05
2023-03-31T10:42:07.776Z,1.90
2023-03-31T10:43:21.386Z,2.62
2023-03-31T10:44:39.181Z,2.60
2023-03-31T10:45:55.036Z,2.50
2023-03-31T10:47:17.228Z,2.58
2023-03-31T10:48:49.390Z,2.58
2023-03-31T10:49:57.874Z,2.30
2023-03-31T10:51:06.892Z,2.47
2023-03-31T10:52:22.446Z,2.20
2023-03-31T10:53:25.240Z,2.60
2023-03-31T10:54:27.931Z,2.53
2023-03-31T10:55:36.876Z,2.47
2023-03-31T10:56:48.672Z,2.33
2023-03-31T10:58:23.998Z,2.20
2023-03-31T10:59:53.725Z,1.90
2023-03-31T11:00:58.031Z,2.03
2023-03-31T11:02:22.510Z,2.55
2023-03-31T11:03:37.274Z,2.30
2023-03-31T11:05:08.744Z,2.05
2023-03-31T11:06:28.930Z,2.00
2023-03-31T11:07:37.484Z,2.10
2023-03-31T11:08:54.577Z,1.90
2023-03-31T11:10:22.528Z,2.20
2023-03-31T11:11:49.790Z,2.22
2023-03-31T11:13:15.569Z,2.22
2023-03-31T11:14:44.473Z,1.98
2023-03-31T11:16:08.149Z,1.98
2023-03-31T11:17:11.018Z,2.20
2023-03-31T11:18:44.514Z,2.40
2023-03-31T11:20:07.085Z,2.45
2023-03-31T11:21:26.455Z,2.30
2023-03-31T11:22:34.877Z,2.20
2023-03-31T11:23:37.446Z,2.30
2023-03-31T11:25:06.402Z,2.30
2023-03-31T11:26:21.985Z,2.03
2023-03-31T11:27:31.047Z,2.10
2023-03-31T11:28:44.414Z,2.25
2023-03-31T11:29:53.977Z,2.00
2023-03-31T11:31:18.179Z,2.47
2023-03-31T11:32:48.326Z,2.00
2023-03-31T11:34:17.048Z,2.25
2023-03-31T11:35:45.675Z,2.30
2023-03-31T11:37:01.349Z,2.35
2023-03-31T11:38:23.981Z,2.10
2023-03-31T11:39:41.732Z,2.10
2023-03-31T11:41:13.738Z,2.58
2023-03-31T11:42:26.392Z,2.30
2023-03-31T11:43:34.866Z,2.00
2023-03-31T11:44:48.526Z,2.00
2023-03-31T11:46:03.822Z,2.08
2023-03-31T11:47:10.828Z,2.97
2023-03-31T11:48:39.206Z,2.22
2023-03-31T11:49:48.161Z,2.00
2023-03-31T11:50:52.727Z,2.05
2023-03-31T11:52:14.609Z,2.40
2023-03-31T11:54:33.535Z,2.35
2023-03-31T11:55:38.815Z,2.25
2023-03-31T11:56:41.949Z,2.42
2023-03-31T11:58:05.270Z,2.75
2023-03-31T11:59:15.755Z,2.30
2023-03-31T12:00:21.006Z,2.60
2023-03-31T12:01:33.878Z,3.40
2023-03-31T12:02:48.818Z,2.22
2023-03-31T12:04:13.223Z,2.00
2023-03-31T12:05:18.130Z,2.10
2023-03-31T12:06:28.220Z,2.08
2023-03-31T12:07:42.863Z,2.65
2023-03-31T12:09:23.403Z,2.15
2023-03-31T12:10:43.236Z,2.60
2023-03-31T12:12:00.940Z,2.10
2023-03-31T12:13:25.609Z,2.17
2023-03-31T12:14:35.462Z,1.80
2023-03-31T12:15:42.273Z,2.40
2023-03-31T12:16:56.252Z,2.47
2023-03-31T12:18:03.672Z,2.80
2023-03-31T12:19:18.975Z,3.08
2023-03-31T12:20:31.673Z,3.08
2023-03-31T12:21:39.106Z,3.15
2023-03-31T12:22:47.509Z,5.72
2023-03-31T12:23:50.396Z,3.45
2023-03-31T12:24:53.785Z,2.95
2023-03-31T12:25:59.984Z,2.20
2023-03-31T12:27:18.865Z,2.17
2023-03-31T12:28:23.570Z,2.05
2023-03-31T12:29:41.841Z,2.30
2023-03-31T12:30:46.711Z,2.45
2023-03-31T12:31:53.372Z,2.00
2023-03-31T12:33:03.052Z,2.22
2023-03-31T12:34:12.823Z,3.00
2023-03-31T12:35:27.591Z,2.42
2023-03-31T12:37:04.591Z,2.67
2023-03-31T12:38:36.725Z,2.22
2023-03-31T12:40:01.178Z,2.00
2023-03-31T12:41:17.865Z,2.12
2023-03-31T12:42:56.997Z,2.28
2023-03-31T12:44:24.216Z,2.62
2023-03-31T12:45:50.089Z,2.08
2023-03-31T12:46:55.510Z,1.85
2023-03-31T12:48:28.988Z,2.08
2023-03-31T12:49:34.647Z,2.25
2023-03-31T12:50:53.746Z,2.50
2023-03-31T12:52:17.285Z,2.20
2023-03-31T12:53:47.887Z,2.67
2023-03-31T12:55:06.166Z,2.55
2023-03-31T12:56:09.140Z,2.20
2023-03-31T12:57:21.594Z,2.28
2023-03-31T12:58:33.228Z,2.10
2023-03-31T12:59:41.249Z,2.20
2023-03-31T13:01:22.235Z,2.22
2023-03-31T13:02:26.747Z,1.83
2023-03-31T13:03:43.939Z,2.53
2023-03-31T13:04:46.675Z,2.37
2023-03-31T13:05:49.556Z,2.50
2023-03-31T13:06:59.943Z,1.90
2023-03-31T13:08:07.948Z,2.17
2023-03-31T13:09:13.432Z,2.08
2023-03-31T13:10:18.827Z,2.22
2023-03-31T13:11:23.433Z,2.10
2023-03-31T13:12:28.805Z,2.30
2023-03-31T13:13:31.727Z,2.25
2023-03-31T13:14:40.536Z,2.10
2023-03-31T13:15:57.091Z,1.90
2023-03-31T13:17:19.329Z,1.65
2023-03-31T13:18:23.184Z,1.70
2023-03-31T13:19:36.849Z,1.65
2023-03-31T13:20:42.296Z,1.90
2023-03-31T13:22:06.394Z,1.85
2023-03-31T13:23:13.495Z,1.85
2023-03-31T13:24:19.198Z,1.77
2023-03-31T13:25:40.605Z,2.22
2023-03-31T13:26:47.417Z,2.45
2023-03-31T13:27:51.025Z,2.50
2023-03-31T13:29:20.443Z,3.22
2023-03-31T13:30:41.664Z,2.10
2023-03-31T13:32:03.201Z,2.78
2023-03-31T13:33:31.336Z,2.20
2023-03-31T13:34:44.286Z,2.12
2023-03-31T13:35:51.572Z,1.98
2023-03-31T13:37:13.282Z,1.75
2023-03-31T13:38:45.102Z,2.00
2023-03-31T13:40:21.584Z,2.35
2023-03-31T13:41:38.452Z,1.62
2023-03-31T13:42:53.047Z,1.83
2023-03-31T13:44:40.233Z,2.05
2023-03-31T13:46:35.061Z,2.20
2023-03-31T13:47:46.126Z,1.80
2023-03-31T13:49:04.064Z,2.33
2023-03-31T13:50:30.803Z,2.20
2023-03-31T13:51:47.064Z,1.67
2023-03-31T13:52:56.187Z,1.55
2023-03-31T13:54:11.068Z,2.35
2023-03-31T13:55:41.244Z,2.90
2023-03-31T13:57:05.432Z,2.42
2023-03-31T13:58:38.083Z,2.37
2023-03-31T14:00:01.213Z,2.30
2023-03-31T14:01:25.014Z,2.22
2023-03-31T14:02:51.532Z,1.60
2023-03-31T14:04:16.625Z,2.10
2023-03-31T14:05:25.532Z,1.40
2023-03-31T14:06:37.783Z,1.55
2023-03-31T14:07:55.519Z,1.58
2023-03-31T14:09:04.392Z,1.48
2023-03-31T14:10:23.161Z,1.90
2023-03-31T14:11:29.317Z,1.75
2023-03-31T14:12:35.190Z,2.35
2023-03-31T14:13:37.863Z,1.77
2023-03-31T14:14:43.471Z,1.55
2023-03-31T14:16:00.417Z,1.70
2023-03-31T14:17:04.161Z,1.83
2023-03-31T14:18:07.952Z,2.08
2023-03-31T14:19:41.926Z,2.22
2023-03-31T14:21:03.572Z,2.50
2023-03-31T14:22:08.823Z,2.42
2023-03-31T14:23:26.779Z,1.80
2023-03-31T14:24:57.401Z,2.42
2023-03-31T14:26:04.193Z,2.12
2023-03-31T14:27:18.787Z,2.00
2023-03-31T14:28:49.928Z,1.92
2023-03-31T14:30:01.634Z,1.77
2023-03-31T14:31:24.227Z,1.70
2023-03-31T14:33:12.065Z,1.80
2023-03-31T14:34:21.403Z,1.70
2023-03-31T14:35:39.659Z,1.65
2023-03-31T14:36:58.086Z,1.60
2023-03-31T14:38:05.030Z,1.67
2023-03-31T14:39:12.343Z,1.67
2023-03-31T14:40:17.578Z,2.83
2023-03-31T14:41:29.952Z,2.33
2023-03-31T14:42:41.039Z,1.90
2023-03-31T14:43:49.733Z,1.83
2023-03-31T14:44:57.679Z,2.08
2023-03-31T14:46:02.268Z,1.90
2023-03-31T14:47:06.439Z,1.80
2023-03-31T14:48:14.744Z,1.83
2023-03-31T14:49:28.539Z,2.00
2023-03-31T14:50:35.789Z,1.67
2023-03-31T14:51:44.221Z,2.17
2023-03-31T14:52:52.489Z,2.00
2023-03-31T14:54:00.213Z,2.25
2023-03-31T14:55:03.134Z,1.40
2023-03-31T14:56:09.794Z,1.90
2023-03-31T14:57:17.606Z,1.80
2023-03-31T14:58:32.316Z,1.95
2023-03-31T14:59:37.567Z,1.83
2023-03-31T15:00:41.538Z,1.80
2023-03-31T15:01:48.343Z,3.95
2023-03-31T15:02:51.565Z,3.85
2023-03-31T15:03:55.604Z,2.00
2023-03-31T15:04:58.753Z,2.30
2023-03-31T15:06:03.557Z,2.25
2023-03-31T15:07:06.765Z,1.90
2023-03-31T15:08:18.434Z,2.35
2023-03-31T15:09:28.809Z,2.33
2023-03-31T15:10:39.106Z,2.40
2023-03-31T15:11:41.953Z,2.15
2023-03-31T15:12:44.751Z,2.40
2023-03-31T15:14:03.474Z,1.83
2023-03-31T15:15:15.152Z,2.08
2023-03-31T15:16:35.712Z,1.70
2023-03-31T15:17:46.182Z,1.80
2023-03-31T15:18:49.133Z,1.85
2023-03-31T15:19:58.292Z,1.60
2023-03-31T15:21:01.188Z,2.28
2023-03-31T15:22:19.122Z,1.85
2023-03-31T15:23:26.262Z,1.58
2023-03-31T15:24:30.248Z,1.90
2023-03-31T15:25:42.682Z,1.92
2023-03-31T15:27:05.656Z,1.62
2023-03-31T15:28:13.956Z,2.17
2023-03-31T15:29:22.896Z,1.60